Ole-arvid Nergaard — LLAY — position and weather

sailwx.info

Track history (hours):
 
Tides and Currents Weather Stations Pressure Air Temp Water Temp Dewpoint Dewpoint Depression Visibility Wind Speed Wind Dir Waves Ship Positions

Ole-arvid Nergaard

Last reported at 2016-Dec-03 04:33 UTC. Time now 2016-Dec-03 19:39 UTC.
Position N 69°42' E 019°04'.

Length 55 m; draft 7.2 m.

Type: Fishing. MMSI: 259656000.

Date/timePositionNaut miles runAvg speedWind from/ knotsBaromVisibWave heightAir tempDewpointWater temp
2016-Dec-03 04:33N 69°42' E 019°04'0 0.0
2016-Dec-03 03:32N 69°42' E 019°04'0 0.4
2016-Dec-03 02:32N 69°42' E 019°03'5 4.8
2016-Dec-03 01:33N 69°38' E 018°57'0 0.0
2016-Dec-03 00:32N 69°38' E 018°57'0 0.0
2016-Dec-02 23:33N 69°38' E 018°57'0 0.0
2016-Dec-02 22:33N 69°38' E 018°57'0 0.0
2016-Dec-02 21:33N 69°38' E 018°57'0 0.0
2016-Dec-02 20:33N 69°38' E 018°57'0 0.0
2016-Dec-02 19:33N 69°38' E 018°57'0 0.0
2016-Dec-02 18:33N 69°38' E 018°57'0 0.0
2016-Dec-02 17:33N 69°38' E 018°57'0 0.0
2016-Dec-02 16:33N 69°38' E 018°57'0 0.0
2016-Dec-02 15:32N 69°38' E 018°57'0 0.0
2016-Dec-02 14:33N 69°38' E 018°57'0 0.0
2016-Dec-02 13:32N 69°38' E 018°57'0 0.0
2016-Dec-02 12:33N 69°38' E 018°57'0 0.0
2016-Dec-02 11:33N 69°38' E 018°57'0 0.0
2016-Dec-02 10:33N 69°38' E 018°57'0 0.0
2016-Dec-02 09:33N 69°38' E 018°57'1 1.0
2016-Dec-02 08:32N 69°37' E 018°55'0 0.1
2016-Dec-02 07:33N 69°37' E 018°55'3 3.2
2016-Dec-02 06:30N 69°40' E 018°60'6 6.3
2016-Dec-02 05:33N 69°45' E 019°05'8 7.6
2016-Dec-02 04:32N 69°50' E 019°23'8 7.9
2016-Dec-02 03:32N 69°57' E 019°35'7 6.9
2016-Dec-02 02:32N 70°03' E 019°39'7 7.5
2016-Dec-02 01:34N 70°10' E 019°30'2 2.2
2016-Dec-02 00:33N 70°11' E 019°25'0 0.1
2016-Dec-01 23:33N 70°11' E 019°25'0 0.1
2016-Dec-01 22:33N 70°12' E 019°25'0 0.2
2016-Dec-01 21:32N 70°12' E 019°26'0 0.3
2016-Dec-01 20:33N 70°12' E 019°27'0 0.3
2016-Dec-01 19:34N 70°12' E 019°28'0 0.3
2016-Dec-01 18:32N 70°12' E 019°29'25 0.7
2016-Nov-30 06:33N 70°26' E 018°28'4 4.3
2016-Nov-30 05:33N 70°29' E 018°39'3 2.8
2016-Nov-30 04:33N 70°26' E 018°33'3 2.7
2016-Nov-30 03:33N 70°25' E 018°26'5 0.3
2016-Nov-29 09:16N 70°29' E 018°35'2 2.6
2016-Nov-29 08:33N 70°27' E 018°35'3 2.6
2016-Nov-29 07:33N 70°25' E 018°29'  
Track history (hours):
 
Tides and Currents Weather Stations Pressure Air Temp Water Temp Dewpoint Dewpoint Depression Visibility Wind Speed Wind Dir Waves Ship Positions

Ole-arvid Nergaard

Last reported at 2016-Dec-03 04:33 UTC. Time now 2016-Dec-03 19:39 UTC.
Position N 69°42' E 019°04'.

Length 55 m; draft 7.2 m.

Type: Fishing. MMSI: 259656000.

Date/timePositionNaut miles runAvg speedWind from/ knotsBaromVisibWave heightAir tempDewpointWater temp
2016-Dec-03 04:33N 69°42' E 019°04'0 0.0
2016-Dec-03 03:32N 69°42' E 019°04'0 0.4
2016-Dec-03 02:32N 69°42' E 019°03'5 4.8
2016-Dec-03 01:33N 69°38' E 018°57'0 0.0
2016-Dec-03 00:32N 69°38' E 018°57'0 0.0
2016-Dec-02 23:33N 69°38' E 018°57'0 0.0
2016-Dec-02 22:33N 69°38' E 018°57'0 0.0
2016-Dec-02 21:33N 69°38' E 018°57'0 0.0
2016-Dec-02 20:33N 69°38' E 018°57'0 0.0
2016-Dec-02 19:33N 69°38' E 018°57'0 0.0
2016-Dec-02 18:33N 69°38' E 018°57'0 0.0
2016-Dec-02 17:33N 69°38' E 018°57'0 0.0
2016-Dec-02 16:33N 69°38' E 018°57'0 0.0
2016-Dec-02 15:32N 69°38' E 018°57'0 0.0
2016-Dec-02 14:33N 69°38' E 018°57'0 0.0
2016-Dec-02 13:32N 69°38' E 018°57'0 0.0
2016-Dec-02 12:33N 69°38' E 018°57'0 0.0
2016-Dec-02 11:33N 69°38' E 018°57'0 0.0
2016-Dec-02 10:33N 69°38' E 018°57'0 0.0
2016-Dec-02 09:33N 69°38' E 018°57'1 1.0
2016-Dec-02 08:32N 69°37' E 018°55'0 0.1
2016-Dec-02 07:33N 69°37' E 018°55'3 3.2
2016-Dec-02 06:30N 69°40' E 018°60'6 6.3
2016-Dec-02 05:33N 69°45' E 019°05'8 7.6
2016-Dec-02 04:32N 69°50' E 019°23'8 7.9
2016-Dec-02 03:32N 69°57' E 019°35'7 6.9
2016-Dec-02 02:32N 70°03' E 019°39'7 7.5
2016-Dec-02 01:34N 70°10' E 019°30'2 2.2
2016-Dec-02 00:33N 70°11' E 019°25'0 0.1
2016-Dec-01 23:33N 70°11' E 019°25'0 0.1
2016-Dec-01 22:33N 70°12' E 019°25'0 0.2
2016-Dec-01 21:32N 70°12' E 019°26'0 0.3
2016-Dec-01 20:33N 70°12' E 019°27'0 0.3
2016-Dec-01 19:34N 70°12' E 019°28'0 0.3
2016-Dec-01 18:32N 70°12' E 019°29'25 0.7
2016-Nov-30 06:33N 70°26' E 018°28'4 4.3
2016-Nov-30 05:33N 70°29' E 018°39'3 2.8
2016-Nov-30 04:33N 70°26' E 018°33'3 2.7
2016-Nov-30 03:33N 70°25' E 018°26'5 0.3
2016-Nov-29 09:16N 70°29' E 018°35'2 2.6
2016-Nov-29 08:33N 70°27' E 018°35'3 2.6
2016-Nov-29 07:33N 70°25' E 018°29'  

Dump ship's entire track history